17:31
Airports
History
Links
Donate
Help keep this website running!
PayPal
Bitcoin
This page is community maintained. The information is intended for PC simulator navigation or reference.
Always use approved charts for navigation.
LILH
VOGHERA
VOGHERA (LILH)
Rivanazzano Terme, Lombardia, Italy (27055)
(U)
Lat/Lng:44° 57' 7.19" N / 9° 0' 59.52" E
44.951998 / 9.016532
Elevation:423'ft / 129mMSL
ID / ICAO:LILH
Runways:1
Longest:16-34
Asphalt 998m / 3,274ft
Nearby Weather16:55 GMT 2018-02-19
Nearby weather at LIMS, PIACENZA located 34.6 nautical miles from LILH
Altimeter: 29.94
Visibility: 3.7 statute miles
Wind: 4 knots (from 110°)
Temp: 6°c / 43°f
Humidity: 87.0%

METAR: LIMS 191655Z 11004KT 6000 BKN060 06/04 Q1014

(Powered by phpweather)
Nearby VORs <50NM
Nearby NDBs
Runway 16 / 34
Dimensions:997.8 x 29.9m 3274' x 98'ft
Surface:Asphalt
Runway 16 [A]Runway 34 [B]
Heading:159°TH 339°TH
Lat:
Lng:
44° 57' 22.37"N
9° 0' 51.51"E
44° 56' 52.01"N
9° 1' 7.52"E
User Notes and Comments
44° 57' 7.19" N / 9° 0' 59.52" E
Distance To
Airport ID:
Nearby Airports
4 Novi Ligure 16.4 NM
LIMR SW 223°
4 Alessandria 19.2 NM
LILA W 264°
4 Casale Monferrato 29.5 NM
LILM WNW 291°
(C) PIACENZA 34.6 NM
LIMS ( WX ) E 94°
(C) Milano Linate 36.4 NM
LIML ( WX ) NNE 20°
(C) Vercelli 38.3 NM
LILI NW 310°
(C) Genova Sestri 38.3 NM
LIMJ ( WX ) SSW 192°
VFR Chart
Flight Planning at SkyVector.com